Aérodrome :
LOGIN :

S'inscrire | Disclaimer

   EN    FR    IT 

 










Légende :    VFR   VFR Marginal   IFR   IFR Intensif   IFR Très Intensif
Visi : 
Plafond : 
>= 8 km
>= 3000ft
5 à 8 km
1000 à 3000 ft
1500m à 5 km
500 à 1000 ft
800 à 1500m
200 à 500 ft
< 800m
< 200 ft
Symboles :   Orages  Brouillard  Fortes neiges  Fortes précipitations  Vent > 20 kt
SIGMETs :   Divers  Orages  Givrage  Turbulence  Onde Orograph.  Cendres Volcan.







- Altitude de l'aérodrome : 82 ft
- Code IATA : AAR


EKAH - Aarhus Tirstrup

DERNIER METAR :
  • 200820Z AUTO 23005KT 200V260 3500NDV BR NCD M03/M03 Q1018 R10/310193

METARs EXPIRÉS :
  • 200750Z AUTO 24004KT 210V270 3400NDV BR NCD M04/M04 Q1018 R10/310193
  • 200720Z AUTO 24002KT 4000NDV BR NCD M03/M03 Q1017 R10/310193
  • 200650Z AUTO 24004KT 210V270 4200NDV BR NCD M03/M03 Q1017 R10/310193
  • 200620Z AUTO 24003KT 4100NDV BR NCD M03/M03 Q1017 R10/310193
  • 200550Z AUTO 24003KT 4600NDV BR NCD M03/M03 Q1017 R10/310193
  • 200520Z AUTO 24004KT 4900NDV BR NCD M03/M03 Q1017 R10/310193

TAF AMD TAF EKAH
Valide du 20 à 06h jusqu'au 21 à 06h UTC


200536Z 2006/2106 24004KT 9999 FEW025
PROB40 2006/2010 0100 FZFG
PROB40 2010/2018 3000 -SHSNRA BKN008 BKN020TCU
BECMG 2104/2106 2000 SNRA BKN004
Pas de NOTAMs connus pour ce terrain.



MET'MAP, la Météo Aéronautique d'un coup d'oeil ! - Copyright ORBIFLY Décembre 2007 - Disclaimer

ORBIFLY MET'MAP TEAM :

Programmation & Développement : Alexandra Zaïnal
Conception & Développement : Baudouin d'Aumeries
Co-Programmation & Développement : Marc-Olivier Méhu
Soutien technique & logistique : Manuel Goepfert

Contact : metmap@orbifly.com




SOURCES & CREDITS :

   NOAA